Time;durP1;ratioP1;P1;durP2;ratioP2;P2;SDS_P1;SDS_P2;PMS_P1;PMS_P2;Temp;Humidity;BMP_temperature;BMP_pressure;BME280_temperature;BME280_humidity;BME280_pressure;Samples;Min_cycle;Max_cycle;Signal;HPM_P1;HPM_P2
2023/08/26 00:00:33;;;;;;;2.50;2.30;;;21.10;99.90;;;;;;5065593;28;20249;-66
2023/08/26 00:03:00;;;;;;;2.15;1.92;;;21.30;99.90;;;;;;5065847;28;20208;-66
2023/08/26 00:05:27;;;;;;;1.90;1.70;;;21.40;99.90;;;;;;5065948;28;20233;-66
2023/08/26 00:07:54;;;;;;;2.13;2.03;;;21.30;99.90;;;;;;5065691;28;20208;-66
2023/08/26 00:10:21;;;;;;;2.40;1.97;;;21.20;99.90;;;;;;5070129;28;20209;-66
2023/08/26 00:12:49;;;;;;;2.40;2.30;;;21.20;99.90;;;;;;5085816;28;20323;-66
2023/08/26 00:15:17;;;;;;;2.33;2.13;;;21.10;99.90;;;;;;5086052;28;20661;-66
2023/08/26 00:17:44;;;;;;;2.20;2.10;;;21.10;99.90;;;;;;5086118;28;20213;-66
2023/08/26 00:20:11;;;;;;;2.23;1.90;;;21.10;99.90;;;;;;5085742;28;20218;-66
2023/08/26 00:22:38;;;;;;;1.90;1.80;;;21.00;99.90;;;;;;5083750;28;20206;-66
2023/08/26 00:25:06;;;;;;;2.47;2.00;;;21.00;99.90;;;;;;5065560;28;20203;-66
2023/08/26 00:27:33;;;;;;;2.70;2.50;;;21.00;99.90;;;;;;5077023;28;20302;-66
2023/08/26 00:30:01;;;;;;;2.07;1.90;;;21.10;99.90;;;;;;5084801;28;20230;-66
2023/08/26 00:32:29;;;;;;;3.03;2.00;;;21.10;99.90;;;;;;5073521;28;20689;-65
2023/08/26 00:34:56;;;;;;;1.93;1.83;;;21.10;99.90;;;;;;5085858;28;20203;-66
2023/08/26 00:37:23;;;;;;;2.63;1.90;;;21.10;99.90;;;;;;5085489;28;20285;-65
2023/08/26 00:39:49;;;;;;;3.88;2.00;;;21.10;99.90;;;;;;5083660;28;20198;-65
2023/08/26 00:42:16;;;;;;;3.22;1.90;;;21.20;99.90;;;;;;5085061;28;20207;-66
2023/08/26 00:44:43;;;;;;;2.00;1.77;;;21.30;99.90;;;;;;5085257;28;20213;-66
2023/08/26 00:47:11;;;;;;;2.20;1.87;;;21.30;99.90;;;;;;5085187;28;20298;-66
2023/08/26 00:49:38;;;;;;;2.30;1.90;;;21.30;99.90;;;;;;5080318;28;20571;-66
2023/08/26 00:52:06;;;;;;;2.20;1.70;;;21.30;99.90;;;;;;5065272;28;20697;-66
2023/08/26 00:54:35;;;;;;;3.65;1.83;;;21.40;99.90;;;;;;5064921;28;20245;-66
2023/08/26 00:57:03;;;;;;;2.85;2.13;;;21.40;99.90;;;;;;5065031;28;20203;-66
2023/08/26 00:59:30;;;;;;;1.77;1.67;;;21.40;99.90;;;;;;5078762;28;20311;-66
2023/08/26 01:01:58;;;;;;;2.60;1.98;;;21.50;99.90;;;;;;5080084;28;20279;-66
2023/08/26 01:04:27;;;;;;;2.25;1.95;;;21.50;99.90;;;;;;5073433;28;20841;-66
2023/08/26 01:06:54;;;;;;;2.15;1.98;;;21.60;99.90;;;;;;5084714;28;20578;-66
2023/08/26 01:09:21;;;;;;;2.17;2.05;;;21.80;99.90;;;;;;5084810;28;20206;-66
2023/08/26 01:11:57;;;;;;;2.03;1.58;;;21.60;99.90;;;;;;5071367;28;20211;-66
2023/08/26 01:14:33;;;;;;;2.30;1.80;;;21.70;99.90;;;;;;5065555;28;20580;-67
2023/08/26 01:17:00;;;;;;;2.47;1.90;;;21.70;99.90;;;;;;5064807;28;20205;-66
2023/08/26 01:19:32;;;;;;;3.38;1.70;;;21.80;99.90;;;;;;5064793;28;20212;-67
2023/08/26 01:22:03;;;;;;;1.83;1.73;;;21.80;99.90;;;;;;5082886;28;20198;-66
2023/08/26 01:24:32;;;;;;;2.30;2.00;;;21.90;99.90;;;;;;5084759;28;20211;-67
2023/08/26 01:26:59;;;;;;;3.10;2.10;;;21.90;99.90;;;;;;5084431;28;20831;-67
2023/08/26 01:29:26;;;;;;;2.72;1.98;;;22.00;99.90;;;;;;5083257;28;20322;-66
2023/08/26 01:32:01;;;;;;;2.20;2.00;;;22.10;99.90;;;;;;5084580;28;20658;-66
2023/08/26 01:34:31;;;;;;;3.60;1.90;;;22.10;99.90;;;;;;5085340;28;20592;-66
2023/08/26 01:37:00;;;;;;;3.28;1.85;;;22.10;99.90;;;;;;5084779;28;20234;-67
2023/08/26 01:39:29;;;;;;;2.20;2.10;;;22.20;99.90;;;;;;5083837;28;20206;-66
2023/08/26 01:42:00;;;;;;;2.35;2.15;;;22.20;99.90;;;;;;5084627;28;20313;-67
2023/08/26 01:44:27;;;;;;;1.90;1.80;;;22.20;99.90;;;;;;5085099;28;20244;-67
2023/08/26 01:46:55;;;;;;;3.55;2.03;;;22.20;99.90;;;;;;5084749;28;20206;-67
2023/08/26 01:49:22;;;;;;;2.47;2.05;;;22.20;99.90;;;;;;5084468;28;20979;-67
2023/08/26 01:51:49;;;;;;;3.85;2.10;;;22.20;99.90;;;;;;5084813;28;20213;-67
2023/08/26 01:54:16;;;;;;;2.33;2.00;;;22.20;99.90;;;;;;5084652;28;20693;-67
2023/08/26 01:56:43;;;;;;;3.00;2.00;;;22.20;99.90;;;;;;5084787;28;20217;-66
2023/08/26 01:59:11;;;;;;;2.08;1.90;;;22.20;99.90;;;;;;5084911;28;20322;-67
2023/08/26 02:01:39;;;;;;;3.10;2.30;;;22.20;99.90;;;;;;5082486;28;20223;-67
2023/08/26 02:04:07;;;;;;;2.25;1.98;;;22.20;99.90;;;;;;5064550;28;20808;-67
2023/08/26 02:06:34;;;;;;;2.30;2.10;;;22.20;99.90;;;;;;5064245;28;20441;-67
2023/08/26 02:09:00;;;;;;;2.35;2.15;;;22.20;99.90;;;;;;5064036;28;20219;-67
2023/08/26 02:11:27;;;;;;;2.40;2.20;;;22.10;99.90;;;;;;5085519;28;20297;-67
2023/08/26 02:13:54;;;;;;;2.50;2.30;;;22.10;99.90;;;;;;5090055;28;20321;-67
2023/08/26 02:16:22;;;;;;;2.53;2.05;;;22.10;99.90;;;;;;5079722;28;20218;-67
2023/08/26 02:18:49;;;;;;;2.00;1.90;;;22.10;99.90;;;;;;5088079;28;20210;-67
2023/08/26 02:21:16;;;;;;;2.40;2.20;;;22.10;99.90;;;;;;5088078;28;20669;-66
2023/08/26 02:23:43;;;;;;;5.90;1.88;;;22.10;99.90;;;;;;5087847;28;20213;-67
2023/08/26 02:26:10;;;;;;;2.00;1.90;;;22.00;99.90;;;;;;5087517;28;20541;-67
2023/08/26 02:28:37;;;;;;;2.38;2.17;;;22.00;99.90;;;;;;5088043;28;20317;-66
2023/08/26 02:31:04;;;;;;;2.22;2.00;;;22.00;99.90;;;;;;5088120;28;20302;-67
2023/08/26 02:33:34;;;;;;;2.80;2.05;;;22.00;99.90;;;;;;5088049;28;20238;-67
2023/08/26 02:36:01;;;;;;;3.88;2.50;;;22.00;99.90;;;;;;5073710;28;20210;-66
2023/08/26 02:38:27;;;;;;;2.08;1.98;;;22.00;99.90;;;;;;5067985;28;20294;-66
2023/08/26 02:40:55;;;;;;;2.10;1.90;;;21.90;99.90;;;;;;5074265;28;20211;-66
2023/08/26 02:43:22;;;;;;;2.28;2.03;;;21.90;99.90;;;;;;5087993;28;20317;-66
2023/08/26 02:45:53;;;;;;;2.47;2.00;;;21.90;99.90;;;;;;5087370;28;20301;-67
2023/08/26 02:48:20;;;;;;;2.25;1.88;;;21.80;99.90;;;;;;5087716;28;20215;-66
2023/08/26 02:50:48;;;;;;;2.78;2.00;;;21.90;99.90;;;;;;5075304;28;20294;-67
2023/08/26 02:53:15;;;;;;;2.45;2.15;;;21.80;99.90;;;;;;5066821;28;20334;-66
2023/08/26 02:55:42;;;;;;;3.10;2.30;;;21.80;99.90;;;;;;5067056;28;20211;-66
2023/08/26 02:58:09;;;;;;;3.92;2.25;;;21.80;99.90;;;;;;5066873;28;20648;-66
2023/08/26 03:00:36;;;;;;;3.72;2.28;;;21.80;99.90;;;;;;5066637;28;20339;-66
2023/08/26 03:03:03;;;;;;;2.17;2.00;;;21.70;99.90;;;;;;5067113;28;20599;-66
2023/08/26 03:05:30;;;;;;;3.05;2.20;;;21.80;99.90;;;;;;5066990;28;20697;-67
2023/08/26 03:07:58;;;;;;;3.28;2.30;;;21.70;99.90;;;;;;5066801;28;20291;-66
2023/08/26 03:10:25;;;;;;;2.92;2.20;;;21.70;99.90;;;;;;5071157;28;20203;-66
2023/08/26 03:12:51;;;;;;;3.55;2.60;;;21.70;99.90;;;;;;5079272;28;20215;-67
2023/08/26 03:15:18;;;;;;;3.67;2.60;;;21.70;99.90;;;;;;5078255;28;20329;-68
2023/08/26 03:17:45;;;;;;;2.42;2.17;;;21.70;99.90;;;;;;5086684;28;20230;-66
2023/08/26 03:20:13;;;;;;;2.60;2.40;;;21.70;99.90;;;;;;5086813;28;20196;-67
2023/08/26 03:22:40;;;;;;;2.72;2.10;;;21.70;99.90;;;;;;5086349;28;20207;-67
2023/08/26 03:25:09;;;;;;;3.05;2.20;;;21.70;99.90;;;;;;5086471;28;20247;-66
2023/08/26 03:27:36;;;;;;;3.28;2.22;;;21.70;99.90;;;;;;5074064;28;20203;-66
2023/08/26 03:30:03;;;;;;;2.30;2.10;;;21.70;99.90;;;;;;5067202;28;20233;-67
2023/08/26 03:32:30;;;;;;;2.45;2.25;;;21.70;99.90;;;;;;5068858;28;20196;-67
2023/08/26 03:34:57;;;;;;;3.00;2.40;;;21.70;99.90;;;;;;5078197;28;20272;-66
2023/08/26 03:37:25;;;;;;;4.50;2.58;;;21.70;99.90;;;;;;5069474;28;20211;-66
2023/08/26 03:39:52;;;;;;;3.05;2.35;;;21.70;99.90;;;;;;5067013;28;20286;-66
2023/08/26 03:42:20;;;;;;;2.80;2.30;;;21.70;99.90;;;;;;5080675;28;20310;-66
2023/08/26 03:44:47;;;;;;;2.67;2.35;;;21.80;99.90;;;;;;5086438;28;20772;-66
2023/08/26 03:47:15;;;;;;;3.70;2.67;;;21.70;99.90;;;;;;5086100;28;20676;-66
2023/08/26 03:49:42;;;;;;;2.83;2.50;;;21.70;99.90;;;;;;5086206;28;20297;-67
2023/08/26 03:52:09;;;;;;;2.88;2.63;;;21.70;99.90;;;;;;5082179;28;20313;-66
2023/08/26 03:54:37;;;;;;;2.95;2.70;;;21.70;99.90;;;;;;5086042;28;20234;-66
2023/08/26 03:57:04;;;;;;;3.40;2.45;;;21.70;99.90;;;;;;5086541;28;20455;-66
2023/08/26 03:59:32;;;;;;;3.30;2.75;;;21.70;99.90;;;;;;5086067;28;20314;-66
2023/08/26 04:01:59;;;;;;;3.67;2.70;;;21.70;99.90;;;;;;5085992;28;20808;-66
2023/08/26 04:04:27;;;;;;;5.22;3.08;;;21.70;99.90;;;;;;5065380;28;20203;-66
2023/08/26 04:06:55;;;;;;;2.72;2.53;;;21.70;99.90;;;;;;5066424;28;20318;-66
2023/08/26 04:09:23;;;;;;;3.10;2.88;;;21.70;99.90;;;;;;5065699;28;20218;-66
2023/08/26 04:11:50;;;;;;;2.95;2.67;;;21.70;99.90;;;;;;5093277;28;20206;-66
2023/08/26 04:14:17;;;;;;;4.68;3.25;;;21.70;99.90;;;;;;5106254;28;20234;-66
2023/08/26 04:16:45;;;;;;;2.92;2.60;;;21.60;99.90;;;;;;5081548;28;20260;-66
2023/08/26 04:19:12;;;;;;;4.75;2.60;;;21.60;99.90;;;;;;5085803;28;20621;-66
2023/08/26 04:21:39;;;;;;;4.10;2.97;;;21.60;99.90;;;;;;5085438;28;20203;-66
2023/08/26 04:24:06;;;;;;;5.60;2.80;;;21.50;99.90;;;;;;5085894;28;20290;-66
2023/08/26 04:26:33;;;;;;;2.90;2.70;;;21.50;99.90;;;;;;5082102;28;20238;-66
2023/08/26 04:29:00;;;;;;;4.13;2.53;;;21.20;99.90;;;;;;5073787;28;20310;-66
2023/08/26 04:31:27;;;;;;;3.10;2.70;;;21.10;99.90;;;;;;5072712;28;20207;-67
2023/08/26 04:33:55;;;;;;;2.85;2.65;;;21.20;99.90;;;;;;5069770;28;20318;-66
2023/08/26 04:36:22;;;;;;;4.50;3.20;;;21.10;99.90;;;;;;5065355;28;20234;-66
2023/08/26 04:38:49;;;;;;;4.13;2.90;;;21.10;99.90;;;;;;5068210;28;20661;-67
2023/08/26 04:41:16;;;;;;;3.17;2.78;;;21.10;99.90;;;;;;5085577;28;20706;-67
2023/08/26 04:43:43;;;;;;;3.78;2.90;;;21.00;99.90;;;;;;5085467;28;20293;-66
2023/08/26 04:46:09;;;;;;;3.10;2.78;;;21.00;99.90;;;;;;5085806;28;20233;-67
2023/08/26 04:48:36;;;;;;;3.33;3.00;;;21.00;99.90;;;;;;5085063;28;20264;-67
2023/08/26 04:51:06;;;;;;;3.92;2.70;;;21.10;99.90;;;;;;5082065;28;20291;-67
2023/08/26 04:53:33;;;;;;;4.63;3.05;;;21.20;99.90;;;;;;5065154;28;20214;-67
2023/08/26 04:56:00;;;;;;;3.47;2.92;;;21.00;99.90;;;;;;5065324;28;20272;-67
2023/08/26 04:58:27;;;;;;;4.43;3.25;;;21.00;99.90;;;;;;5065426;28;20241;-67
2023/08/26 05:00:54;;;;;;;3.22;2.92;;;20.90;99.90;;;;;;5064823;28;20330;-66
2023/08/26 05:03:21;;;;;;;5.18;2.95;;;20.70;99.90;;;;;;5065418;28;20286;-66
2023/08/26 05:05:48;;;;;;;4.85;3.08;;;20.80;99.90;;;;;;5065004;28;20212;-66
2023/08/26 05:08:16;;;;;;;4.15;3.45;;;20.90;99.90;;;;;;5064552;28;20214;-66
2023/08/26 05:10:43;;;;;;;3.42;3.10;;;20.90;99.90;;;;;;5073391;28;20317;-66
2023/08/26 05:13:10;;;;;;;4.10;3.30;;;20.80;99.90;;;;;;5088340;28;20656;-66
2023/08/26 05:15:37;;;;;;;3.83;3.53;;;20.80;99.90;;;;;;5077522;28;20455;-67
2023/08/26 05:18:04;;;;;;;3.53;3.23;;;20.80;99.90;;;;;;5064382;28;20674;-66
2023/08/26 05:20:31;;;;;;;3.05;2.83;;;20.90;99.90;;;;;;5064687;28;20203;-66
2023/08/26 05:23:07;;;;;;;3.38;3.00;;;20.90;99.90;;;;;;5064474;28;20298;-66
2023/08/26 05:25:35;;;;;;;3.40;3.10;;;21.00;99.90;;;;;;5064812;28;20225;-66
2023/08/26 05:28:04;;;;;;;5.25;3.72;;;20.90;99.90;;;;;;5065016;28;20227;-67
2023/08/26 05:30:31;;;;;;;4.80;3.35;;;21.00;99.90;;;;;;5064711;28;20230;-67
2023/08/26 05:32:58;;;;;;;4.20;3.50;;;21.00;99.90;;;;;;5064408;28;20302;-67
2023/08/26 05:35:24;;;;;;;5.60;4.07;;;20.90;99.90;;;;;;5064728;28;20234;-67
2023/08/26 05:37:51;;;;;;;3.70;3.42;;;20.90;99.90;;;;;;5064722;28;20204;-67
2023/08/26 05:40:21;;;;;;;3.63;3.33;;;21.00;99.90;;;;;;5083782;28;20199;-66
2023/08/26 05:42:49;;;;;;;3.83;3.53;;;21.10;99.90;;;;;;5084593;28;20252;-66
2023/08/26 05:45:16;;;;;;;6.55;3.80;;;21.00;99.90;;;;;;5084599;28;20785;-67
2023/08/26 05:47:43;;;;;;;6.00;3.83;;;21.10;99.90;;;;;;5084524;28;20309;-66
2023/08/26 05:50:10;;;;;;;4.32;3.78;;;21.10;99.90;;;;;;5086685;28;20195;-66
2023/08/26 05:52:37;;;;;;;3.90;3.60;;;21.10;99.90;;;;;;5087664;28;20834;-66
2023/08/26 05:55:04;;;;;;;5.40;4.00;;;21.10;99.90;;;;;;5088365;28;20230;-66
2023/08/26 05:57:31;;;;;;;7.15;4.10;;;21.10;99.90;;;;;;5088243;28;20203;-66
2023/08/26 06:00:00;;;;;;;4.37;3.97;;;20.90;99.90;;;;;;5088151;28;20239;-66
2023/08/26 06:02:26;;;;;;;4.03;3.67;;;20.80;99.90;;;;;;5082342;28;20260;-67
2023/08/26 06:04:53;;;;;;;3.97;3.53;;;20.80;99.90;;;;;;5067639;28;20243;-66
2023/08/26 06:07:20;;;;;;;3.83;3.53;;;20.80;99.90;;;;;;5067946;28;20286;-66
2023/08/26 06:09:47;;;;;;;4.63;4.33;;;20.90;99.90;;;;;;5067826;28;20265;-66
2023/08/26 06:12:14;;;;;;;10.43;4.77;;;20.80;99.90;;;;;;5073343;28;20209;-66
2023/08/26 06:14:41;;;;;;;5.10;3.93;;;20.70;99.90;;;;;;5078313;28;20230;-66
2023/08/26 06:17:09;;;;;;;5.50;4.80;;;20.70;99.90;;;;;;5067679;28;20292;-66
2023/08/26 06:19:36;;;;;;;4.00;3.70;;;20.70;99.90;;;;;;5067675;28;20945;-66
2023/08/26 06:22:03;;;;;;;11.47;4.60;;;20.80;99.90;;;;;;5087117;28;20318;-66
2023/08/26 06:24:30;;;;;;;6.10;3.97;;;20.90;99.90;;;;;;5081709;28;20207;-66
2023/08/26 06:26:57;;;;;;;3.80;3.50;;;21.00;99.90;;;;;;5068529;28;20203;-66
2023/08/26 06:29:25;;;;;;;4.00;3.70;;;21.10;99.90;;;;;;5065825;28;20659;-66
2023/08/26 06:31:52;;;;;;;4.40;4.10;;;21.10;99.90;;;;;;5065527;28;20666;-66
2023/08/26 06:34:20;;;;;;;4.53;4.00;;;21.30;99.90;;;;;;5065552;28;20322;-66
2023/08/26 06:36:47;;;;;;;5.60;3.97;;;21.30;99.90;;;;;;5065799;28;20208;-67
2023/08/26 06:39:14;;;;;;;4.40;3.65;;;21.40;99.90;;;;;;5065518;28;20299;-66
2023/08/26 06:41:41;;;;;;;5.45;4.00;;;21.50;99.90;;;;;;5066356;28;20295;-66
2023/08/26 06:44:08;;;;;;;4.45;4.05;;;21.60;99.90;;;;;;5066433;28;20286;-66
2023/08/26 06:46:36;;;;;;;4.15;3.70;;;21.60;99.90;;;;;;5066712;28;20203;-66
2023/08/26 06:49:03;;;;;;;4.40;4.10;;;21.70;99.90;;;;;;5066831;28;20207;-66
2023/08/26 06:51:31;;;;;;;3.75;3.45;;;21.70;99.90;;;;;;5065827;28;20295;-66
2023/08/26 06:53:58;;;;;;;4.50;4.13;;;21.70;99.90;;;;;;5067360;28;20294;-66
2023/08/26 06:56:25;;;;;;;4.50;4.10;;;21.70;99.90;;;;;;5065324;28;20235;-66
2023/08/26 06:58:52;;;;;;;4.25;3.95;;;21.60;99.90;;;;;;5065108;28;20207;-67
2023/08/26 07:01:19;;;;;;;4.43;4.07;;;21.40;99.90;;;;;;5074057;28;20199;-66
2023/08/26 07:03:46;;;;;;;4.75;4.32;;;21.50;99.90;;;;;;5074213;28;20208;-66
2023/08/26 07:06:13;;;;;;;5.07;4.57;;;21.20;99.90;;;;;;5065492;28;20255;-66
2023/08/26 07:08:41;;;;;;;4.65;4.20;;;21.10;99.90;;;;;;5064864;28;20299;-66
2023/08/26 07:11:08;;;;;;;4.72;4.43;;;21.10;99.90;;;;;;5072969;28;20275;-66
2023/08/26 07:13:35;;;;;;;5.00;4.60;;;21.10;99.90;;;;;;5085163;28;21004;-66
2023/08/26 07:16:03;;;;;;;5.40;4.90;;;21.10;99.90;;;;;;5077404;28;20354;-66
2023/08/26 07:18:30;;;;;;;4.80;4.47;;;21.20;99.90;;;;;;5084428;28;20237;-66
2023/08/26 07:20:57;;;;;;;4.93;4.53;;;21.30;99.90;;;;;;5085845;28;20346;-66
2023/08/26 07:23:24;;;;;;;4.63;4.30;;;21.40;99.90;;;;;;5086637;28;20298;-66
2023/08/26 07:25:52;;;;;;;4.43;4.13;;;21.40;99.90;;;;;;5094879;28;20624;-66
2023/08/26 07:28:19;;;;;;;4.63;4.32;;;21.60;99.90;;;;;;5089778;28;20313;-66
2023/08/26 07:30:46;;;;;;;4.22;3.92;;;21.60;99.90;;;;;;5078961;28;20299;-66
2023/08/26 07:33:13;;;;;;;5.43;4.90;;;21.60;99.90;;;;;;5068322;28;20669;-66
2023/08/26 07:35:40;;;;;;;5.43;5.03;;;21.50;99.90;;;;;;5086273;28;20325;-66
2023/08/26 07:38:07;;;;;;;6.00;5.50;;;21.40;99.90;;;;;;5075876;28;21030;-66
2023/08/26 07:40:34;;;;;;;6.00;5.53;;;21.40;99.90;;;;;;5077027;28;20217;-66
2023/08/26 07:43:04;;;;;;;6.63;5.88;;;21.40;99.90;;;;;;5084190;28;20664;-66
2023/08/26 07:45:31;;;;;;;5.50;5.05;;;21.40;99.90;;;;;;5101622;28;20602;-66
2023/08/26 07:47:58;;;;;;;6.00;5.45;;;21.50;99.90;;;;;;5086188;28;20215;-66
2023/08/26 07:50:25;;;;;;;5.95;5.45;;;21.40;99.90;;;;;;5073767;28;20203;-66
2023/08/26 07:52:53;;;;;;;6.78;5.63;;;21.40;99.90;;;;;;5078537;28;20208;-66
2023/08/26 07:55:20;;;;;;;6.50;5.93;;;21.40;99.90;;;;;;5065607;28;20760;-66
2023/08/26 07:57:47;;;;;;;7.10;6.50;;;21.50;99.90;;;;;;5066238;28;20294;-66
2023/08/26 08:00:16;;;;;;;8.20;7.45;;;21.60;99.90;;;;;;5069200;28;20242;-66
2023/08/26 08:02:42;;;;;;;5.00;4.70;;;21.80;99.90;;;;;;5100463;28;20751;-66
2023/08/26 08:05:09;;;;;;;6.00;5.50;;;21.90;99.90;;;;;;5087226;28;20211;-66
2023/08/26 08:07:36;;;;;;;5.75;5.22;;;22.10;99.90;;;;;;5085290;28;20203;-66
2023/08/26 08:10:04;;;;;;;8.27;5.22;;;22.30;99.90;;;;;;5084134;28;20613;-66
2023/08/26 08:12:31;;;;;;;5.13;4.82;;;22.40;99.90;;;;;;5085090;28;20206;-66
2023/08/26 08:14:57;;;;;;;5.10;4.60;;;22.50;99.90;;;;;;5085320;28;20353;-66
2023/08/26 08:17:29;;;;;;;4.93;4.57;;;22.60;99.90;;;;;;5081471;28;20314;-66
2023/08/26 08:19:56;;;;;;;5.13;4.65;;;22.50;99.90;;;;;;5073629;28;20252;-66
2023/08/26 08:22:34;;;;;;;4.72;4.38;;;22.30;99.90;;;;;;5079865;28;20294;-66
2023/08/26 08:25:02;;;;;;;4.47;4.07;;;22.20;99.90;;;;;;5068846;28;20203;-66
2023/08/26 08:27:29;;;;;;;4.55;4.18;;;21.90;99.90;;;;;;5080836;28;20780;-66
2023/08/26 08:29:56;;;;;;;5.30;5.00;;;21.90;99.90;;;;;;5073079;28;20333;-66
2023/08/26 08:32:23;;;;;;;5.18;4.70;;;21.90;99.90;;;;;;5073192;28;20202;-67
2023/08/26 08:34:52;;;;;;;5.00;4.43;;;21.80;99.90;;;;;;5085070;28;20272;-66
2023/08/26 08:37:20;;;;;;;5.00;4.60;;;21.80;99.90;;;;;;5068276;28;20310;-66
2023/08/26 08:39:46;;;;;;;4.90;4.50;;;21.70;99.90;;;;;;5078151;28;20207;-66
2023/08/26 08:42:16;;;;;;;5.10;4.40;;;21.60;99.90;;;;;;5086376;28;21025;-66
2023/08/26 08:44:44;;;;;;;4.33;4.00;;;21.60;99.90;;;;;;5070528;28;20281;-66
2023/08/26 08:47:11;;;;;;;3.90;3.70;;;21.60;99.90;;;;;;5067078;28;20204;-66
2023/08/26 08:49:38;;;;;;;3.93;3.63;;;21.70;99.90;;;;;;5081484;28;20216;-66
2023/08/26 08:52:07;;;;;;;4.07;3.33;;;21.80;99.90;;;;;;5084322;28;20224;-66
2023/08/26 08:54:35;;;;;;;3.97;3.60;;;21.80;99.90;;;;;;5090547;28;20230;-66
2023/08/26 08:57:04;;;;;;;3.27;3.07;;;21.80;99.90;;;;;;5069387;28;20231;-66
2023/08/26 08:59:33;;;;;;;3.63;3.43;;;21.70;99.90;;;;;;5078939;28;20230;-66
2023/08/26 09:02:00;;;;;;;7.27;6.63;;;21.70;99.90;;;;;;5094243;28;20864;-66
2023/08/26 09:04:28;;;;;;;6.00;5.50;;;21.70;99.90;;;;;;5081950;28;20202;-66
2023/08/26 09:06:55;;;;;;;3.83;3.53;;;21.70;99.90;;;;;;5094297;28;20215;-66
2023/08/26 09:09:23;;;;;;;4.13;3.83;;;21.70;99.90;;;;;;5067229;28;20234;-66
2023/08/26 09:11:51;;;;;;;3.83;3.60;;;21.70;99.90;;;;;;5082950;28;20211;-66
2023/08/26 09:14:18;;;;;;;4.43;4.03;;;21.70;99.90;;;;;;5082931;28;20206;-66
2023/08/26 09:16:45;;;;;;;5.77;4.40;;;21.70;99.90;;;;;;5080696;28;20254;-66
2023/08/26 09:19:14;;;;;;;4.63;4.33;;;21.70;99.90;;;;;;5080350;28;20337;-66
2023/08/26 09:21:42;;;;;;;6.23;5.03;;;21.80;99.90;;;;;;5081304;28;20685;-66
2023/08/26 09:24:13;;;;;;;4.93;4.07;;;21.90;99.90;;;;;;5084052;28;20610;-66
2023/08/26 09:26:42;;;;;;;4.00;3.70;;;22.10;99.90;;;;;;5085170;28;20301;-66
2023/08/26 09:29:15;;;;;;;4.53;4.10;;;22.40;99.90;;;;;;5082855;28;20288;-66
2023/08/26 09:31:49;;;;;;;5.72;5.22;;;22.50;99.90;;;;;;5070263;28;20964;-66
2023/08/26 09:34:24;;;;;;;6.45;5.90;;;22.60;99.90;;;;;;5084560;28;20639;-66
2023/08/26 09:36:51;;;;;;;5.43;5.05;;;22.70;99.90;;;;;;5091569;28;20221;-66
2023/08/26 09:39:18;;;;;;;5.15;4.75;;;22.60;99.90;;;;;;5101296;28;20661;-66
2023/08/26 09:41:48;;;;;;;8.60;7.80;;;22.70;99.90;;;;;;5084923;28;20260;-66
2023/08/26 09:44:17;;;;;;;7.05;6.35;;;22.80;99.90;;;;;;5076656;28;20215;-66
2023/08/26 09:46:45;;;;;;;8.00;7.28;;;22.80;99.90;;;;;;5076582;28;20680;-66
2023/08/26 09:49:14;;;;;;;9.05;8.20;;;22.70;99.90;;;;;;5081866;28;20209;-67
2023/08/26 09:51:46;;;;;;;10.93;9.85;;;22.70;99.90;;;;;;5071505;28;20206;-66
2023/08/26 09:54:16;;;;;;;8.77;7.95;;;22.50;99.90;;;;;;5093664;28;20305;-66
2023/08/26 09:56:43;;;;;;;10.00;8.90;;;22.50;99.90;;;;;;5079863;28;20234;-66
2023/08/26 09:59:12;;;;;;;8.95;8.05;;;22.60;99.90;;;;;;5085653;28;20294;-66
2023/08/26 10:01:40;;;;;;;9.45;8.57;;;22.90;99.90;;;;;;5079252;28;20217;-67
2023/08/26 10:04:09;;;;;;;11.40;9.05;;;23.00;99.90;;;;;;5084601;28;20671;-67
2023/08/26 10:06:41;;;;;;;11.20;10.02;;;23.10;99.90;;;;;;5083416;28;20293;-67
2023/08/26 10:09:16;;;;;;;12.77;10.05;;;23.20;99.90;;;;;;5067676;28;20643;-67
2023/08/26 10:11:47;;;;;;;10.57;9.48;;;23.20;99.90;;;;;;5078015;28;20211;-66
2023/08/26 10:14:17;;;;;;;9.80;8.38;;;23.30;99.90;;;;;;5078939;28;20743;-67
2023/08/26 10:16:46;;;;;;;10.32;9.30;;;23.40;99.90;;;;;;5067212;28;20226;-65
2023/08/26 10:19:14;;;;;;;10.27;9.30;;;23.40;99.90;;;;;;5078747;28;20243;-65
2023/08/26 10:21:41;;;;;;;13.75;10.20;;;23.40;99.90;;;;;;5079624;28;20218;-65
2023/08/26 10:24:08;;;;;;;10.57;9.35;;;23.50;99.90;;;;;;5084400;28;20286;-65
2023/08/26 10:26:36;;;;;;;9.88;8.98;;;23.60;99.90;;;;;;5071143;28;20215;-65
2023/08/26 10:29:03;;;;;;;10.52;9.05;;;23.70;99.90;;;;;;5081775;28;20659;-65
2023/08/26 10:31:36;;;;;;;8.98;8.18;;;23.80;99.90;;;;;;5084831;28;20213;-65
2023/08/26 10:34:15;;;;;;;9.02;8.13;;;23.90;99.90;;;;;;5075527;28;20243;-65
2023/08/26 10:36:46;;;;;;;9.40;8.40;;;24.00;99.90;;;;;;5067309;28;20315;-66
2023/08/26 10:39:15;;;;;;;10.85;7.88;;;24.10;99.90;;;;;;5086816;28;20211;-66
2023/08/26 10:42:14;;;;;;;8.98;7.75;;;24.40;99.90;;;;;;5076959;28;20218;-66
2023/08/26 10:44:42;;;;;;;11.98;8.90;;;24.60;99.90;;;;;;5082631;28;20207;-66
2023/08/26 10:47:11;;;;;;;9.07;7.85;;;24.70;99.90;;;;;;5085748;28;20213;-66
2023/08/26 10:49:38;;;;;;;13.25;11.93;;;24.70;99.90;;;;;;5078642;28;20234;-66
2023/08/26 10:52:10;;;;;;;16.70;14.98;;;24.70;99.90;;;;;;5089327;28;20290;-66
2023/08/26 10:54:37;;;;;;;8.48;7.78;;;24.70;99.90;;;;;;5086355;28;20987;-66
2023/08/26 10:57:07;;;;;;;9.18;7.30;;;24.60;99.90;;;;;;5070395;28;20258;-66
2023/08/26 10:59:37;;;;;;;11.63;7.70;;;24.50;99.90;;;;;;5066820;28;20725;-66
2023/08/26 11:02:07;;;;;;;6.75;6.13;;;24.60;99.90;;;;;;5067011;28;20666;-66
2023/08/26 11:04:37;;;;;;;7.45;6.75;;;24.80;99.90;;;;;;5070648;28;20310;-66
2023/08/26 11:07:04;;;;;;;7.47;6.50;;;25.00;99.90;;;;;;5087636;28;20207;-66
2023/08/26 11:09:31;;;;;;;6.88;6.18;;;25.20;99.90;;;;;;5073259;28;20211;-66
2023/08/26 11:11:58;;;;;;;7.20;5.80;;;25.40;99.90;;;;;;5080537;28;20670;-66
2023/08/26 11:14:32;;;;;;;8.65;6.28;;;25.50;99.90;;;;;;5085036;28;20279;-66
2023/08/26 11:17:02;;;;;;;8.35;6.32;;;25.60;99.90;;;;;;5068908;28;20238;-66
2023/08/26 11:19:29;;;;;;;7.57;5.97;;;25.70;99.90;;;;;;5085699;28;20615;-66
2023/08/26 11:21:58;;;;;;;7.20;5.13;;;25.90;99.90;;;;;;5085569;28;21031;-66
2023/08/26 11:24:31;;;;;;;6.88;5.00;;;26.00;99.90;;;;;;5082881;28;20325;-66
2023/08/26 11:26:59;;;;;;;5.13;4.72;;;26.00;99.90;;;;;;5084097;28;20211;-66
2023/08/26 11:29:26;;;;;;;5.72;5.22;;;25.70;99.90;;;;;;5086825;28;20572;-66
2023/08/26 11:31:53;;;;;;;5.32;4.82;;;25.60;99.90;;;;;;5078807;28;20297;-66
2023/08/26 11:34:24;;;;;;;4.70;4.20;;;25.50;99.90;;;;;;5078230;28;20294;-66
2023/08/26 11:36:53;;;;;;;6.20;4.03;;;25.50;99.90;;;;;;5086884;28;20317;-66
2023/08/26 11:39:22;;;;;;;4.45;4.05;;;25.30;99.90;;;;;;5086459;28;20219;-66
2023/08/26 11:41:49;;;;;;;5.10;4.25;;;25.00;99.90;;;;;;5093039;28;20234;-66
2023/08/26 11:44:16;;;;;;;4.65;4.18;;;24.90;99.90;;;;;;5098111;28;20206;-66
2023/08/26 11:46:44;;;;;;;4.65;4.25;;;24.80;99.90;;;;;;5090613;28;20250;-66
2023/08/26 11:49:11;;;;;;;5.65;4.10;;;24.70;99.90;;;;;;5086162;28;20210;-66
2023/08/26 11:51:41;;;;;;;4.10;3.80;;;24.70;99.90;;;;;;5065680;28;20205;-66
2023/08/26 11:54:09;;;;;;;5.32;4.70;;;24.70;99.90;;;;;;5065513;28;20729;-66
2023/08/26 11:56:37;;;;;;;6.35;4.35;;;25.00;99.90;;;;;;5079777;28;20227;-66
2023/08/26 11:59:18;;;;;;;4.25;3.95;;;25.20;99.90;;;;;;5083456;28;20260;-66
2023/08/26 12:01:45;;;;;;;4.93;4.20;;;25.40;99.90;;;;;;5072196;28;20237;-68
2023/08/26 12:04:13;;;;;;;6.65;5.82;;;25.60;99.90;;;;;;5085489;28;20242;-66
2023/08/26 12:06:40;;;;;;;5.47;4.97;;;25.70;99.90;;;;;;5071143;28;20288;-66
2023/08/26 12:09:07;;;;;;;4.63;3.85;;;25.70;99.90;;;;;;5084036;28;20215;-66
2023/08/26 12:11:35;;;;;;;3.80;3.40;;;25.80;99.90;;;;;;5092255;28;20203;-66
2023/08/26 12:14:18;;;;;;;3.85;3.55;;;25.60;99.90;;;;;;5086088;28;20213;-66
2023/08/26 12:16:45;;;;;;;3.92;3.63;;;25.90;99.90;;;;;;5089003;28;20231;-68
2023/08/26 12:19:15;;;;;;;3.60;3.17;;;26.30;99.90;;;;;;5084674;28;20263;-67
2023/08/26 12:21:42;;;;;;;6.05;3.50;;;26.50;99.90;;;;;;5092159;28;20280;-66
2023/08/26 12:24:10;;;;;;;3.53;3.33;;;26.70;99.90;;;;;;5085592;28;20208;-66
2023/08/26 12:26:38;;;;;;;3.65;3.35;;;26.40;99.90;;;;;;5065571;28;20967;-66
2023/08/26 12:29:06;;;;;;;4.20;3.80;;;26.30;99.90;;;;;;5083824;28;20237;-66
2023/08/26 12:31:34;;;;;;;4.95;3.40;;;26.30;99.90;;;;;;5076750;28;20298;-66
2023/08/26 12:34:01;;;;;;;4.43;3.45;;;26.00;99.90;;;;;;5083123;28;20588;-66
2023/08/26 12:36:29;;;;;;;4.50;3.53;;;26.10;99.90;;;;;;5078221;28;20716;-66
2023/08/26 12:38:56;;;;;;;3.95;3.38;;;26.30;99.90;;;;;;5068681;28;20297;-66
2023/08/26 12:41:23;;;;;;;3.80;3.40;;;26.30;99.90;;;;;;5081573;28;20246;-66
2023/08/26 12:43:53;;;;;;;6.28;3.30;;;26.20;99.90;;;;;;5072677;28;20534;-66
2023/08/26 12:46:21;;;;;;;3.83;3.53;;;26.10;99.90;;;;;;5073766;28;20215;-66
2023/08/26 12:48:49;;;;;;;3.38;3.08;;;26.10;99.90;;;;;;5078193;28;20245;-66